LIRQ/FLR METAR and TAF weather

Enter ICAO airport designator
Station Type Date Time Source
LIRQ METAR 2018/12/15 20:20 UTC NOAA

LIRQ 152020Z VRB02KT CAVOK 01/M04 Q1020


Station Type Date Time Source
LIRQ Decoded METAR 2018/12/15 20:20 UTC NOAA

Firenze / Peretola, Italy (LIRQ) 43-48N 011-12E 38M
Dec 15, 2018 - 03:20 PM EST / 2018.12.15 2020 UTC
Wind: Variable at 2 MPH (2 KT):0
Visibility: greater than 7 mile(s):0
Temperature: 33 F (1 C)
Dew Point: 24 F (-4 C)
Relative Humidity: 69%
Pressure (altimeter): 30.12 in. Hg (1020 hPa)
ob: LIRQ 152020Z VRB02KT CAVOK 01/M04 Q1020
cycle: 20

Station Type Date Time Source
LIRQ TAF 2018/12/15 18:21 UTC NOAA

TAF LIRQ 151700Z 1518/1618 VRB05KT CAVOK
TEMPO 1616/1618 4000 RASN


Example: see airport list